Licenciado Gustavo Díaz Ordaz International Airport
MMPR : rendu visible

Aérodrome :











RETROUVEZ-NOUS SUR...

 
LOGIN :

S'inscrire | Disclaimer

   EN    FR    IT 

 









Légende :    VFR   VFR Marginal   IFR   IFR Intensif   IFR Très Intensif
Visi : 
Plafond : 
>= 8 km
>= 3000ft
5 à 8 km
1000 à 3000 ft
1500m à 5 km
500 à 1000 ft
800 à 1500m
200 à 500 ft
< 800m
< 200 ft
Symboles :   Orages  Brouillard  Fortes neiges  Fortes précipitations  Vent > 20 kt






- Altitude de l'aérodrome : 23 ft
- Code IATA : PVR


MMPR - Licenciado Gustavo Díaz Ordaz International

DERNIER METAR :
  • 100647Z 00000KT 12SM SKC 22/20 A2994

METARs EXPIRÉS :
  • 100551Z 00000KT 12SM SKC 22/21 A2994 RMK SLP146 52005 913
  • 100449Z 00000KT 12SM FEW020 22/21 A2995 RMK 8/500

TAF TAF MMPR
Valide du 10 à 06h jusqu'au 11 à 12h UTC


100452Z 1006/1112 02004KT P6SM SKC TX30/1020Z TN19/1013Z
FM101800 22010KT P6SM SCT020 SCT080
BECMG 1105/1107 08005KT SKC



MET'MAP, la Météo Aéronautique d'un coup d'oeil ! - Copyright ORBIFLY Décembre 2007 - Disclaimer

ORBIFLY MET'MAP TEAM :

Programmation & Développement : Alexandra Zaïnal
Sur une idée originale de : Baudouin d'Aumeries
Assistance à la programmation : Marc-Olivier Méhu
Soutien technique & logistique : Manuel Goepfert

Contact : metmap@orbifly.com




SOURCES & CREDITS :

   NOAA       Earth
Advisory